createdAt,value
2022-09-15T00:00:05.912Z,0
2022-09-15T00:05:05.839Z,0
2022-09-15T00:10:05.885Z,0
2022-09-15T00:15:05.889Z,0
2022-09-15T00:25:33.532Z,0
2022-09-15T00:30:06.502Z,0
2022-09-15T00:35:06.018Z,0
2022-09-15T00:40:05.953Z,0
2022-09-15T00:45:05.941Z,0
2022-09-15T00:50:05.901Z,0
2022-09-15T00:55:05.950Z,0
2022-09-15T01:00:05.859Z,0
2022-09-15T01:05:05.905Z,0
2022-09-15T01:10:05.867Z,0
2022-09-15T01:15:05.920Z,0
2022-09-15T01:20:05.882Z,0
2022-09-15T01:25:05.899Z,0
2022-09-15T01:30:05.878Z,0
2022-09-15T01:35:05.904Z,0
2022-09-15T01:40:05.988Z,0
2022-09-15T01:45:05.903Z,0
2022-09-15T01:50:05.913Z,0
2022-09-15T01:55:05.980Z,0
2022-09-15T06:20:05.999Z,327
2022-09-15T06:25:06.607Z,380
2022-09-15T06:30:05.970Z,431
2022-09-15T06:35:05.994Z,480
2022-09-15T06:40:06.138Z,485
2022-09-15T06:45:06.004Z,418
2022-09-15T06:50:05.983Z,401
2022-09-15T06:55:05.965Z,354
2022-09-15T07:00:05.986Z,333
2022-09-15T07:05:06.059Z,372
2022-09-15T07:10:05.994Z,329
2022-09-15T07:15:05.973Z,421
2022-09-15T07:20:06.047Z,406
2022-09-15T07:25:06.008Z,362
2022-09-15T07:30:06.072Z,382
2022-09-15T07:35:06.026Z,351
2022-09-15T07:40:06.112Z,369
2022-09-15T07:45:05.997Z,378
2022-09-15T07:50:06.051Z,434
2022-09-15T07:55:06.071Z,569
2022-09-15T08:00:06.025Z,768
2022-09-15T08:05:06.002Z,690
2022-09-15T08:10:05.997Z,619
2022-09-15T08:15:06.042Z,564
2022-09-15T08:20:05.994Z,746
2022-09-15T08:25:06.046Z,591
2022-09-15T08:30:06.034Z,477
2022-09-15T08:35:06.056Z,734
2022-09-15T08:40:06.058Z,640
2022-09-15T08:45:06.032Z,469
2022-09-15T08:50:06.009Z,494
2022-09-15T08:55:06.008Z,476
2022-09-15T09:00:06.023Z,530
2022-09-15T09:05:06.055Z,648
2022-09-15T09:10:06.035Z,714
2022-09-15T09:15:06.133Z,776
2022-09-15T09:20:06.017Z,497
2022-09-15T09:25:21.403Z,420
2022-09-15T09:30:06.026Z,445
2022-09-15T09:35:06.048Z,534
2022-09-15T09:40:06.076Z,648
2022-09-15T09:45:06.032Z,673
2022-09-15T09:50:06.080Z,597
2022-09-15T09:55:06.022Z,485
2022-09-15T10:00:06.010Z,392
2022-09-15T10:05:06.125Z,377
2022-09-15T10:10:06.130Z,453
2022-09-15T10:15:06.095Z,554
2022-09-15T10:20:06.085Z,636
2022-09-15T10:25:06.078Z,510
2022-09-15T10:30:06.087Z,658
2022-09-15T10:35:06.041Z,723
2022-09-15T10:40:06.098Z,1177
2022-09-15T10:45:06.056Z,490
2022-09-15T10:50:06.065Z,431
2022-09-15T10:55:06.083Z,637
2022-09-15T11:00:06.081Z,804
2022-09-15T11:05:06.041Z,611
2022-09-15T11:10:06.074Z,592
2022-09-15T11:15:06.050Z,669
2022-09-15T11:30:06.147Z,457
2022-09-15T11:35:06.048Z,503
2022-09-15T11:40:06.202Z,523
2022-09-15T11:45:06.058Z,557
2022-09-15T11:50:06.066Z,541
2022-09-15T11:55:06.098Z,515
2022-09-15T12:00:06.093Z,460
2022-09-15T12:05:06.124Z,443
2022-09-15T12:10:06.099Z,481
2022-09-15T12:15:06.401Z,497
2022-09-15T12:20:06.117Z,413
2022-09-15T12:25:06.136Z,383
2022-09-15T12:30:06.265Z,440
2022-09-15T12:35:09.028Z,595
2022-09-15T12:40:06.247Z,455
2022-09-15T12:45:06.121Z,442
2022-09-15T12:50:06.194Z,415
2022-09-15T12:55:06.078Z,413
2022-09-15T13:00:06.185Z,365
2022-09-15T13:05:06.036Z,445
2022-09-15T13:10:06.118Z,522
2022-09-15T13:15:06.172Z,533
2022-09-15T13:20:06.125Z,497
2022-09-15T13:25:06.112Z,538
2022-09-15T13:30:06.100Z,502
2022-09-15T13:35:14.880Z,442
2022-09-15T13:40:06.173Z,391
2022-09-15T13:45:06.126Z,479
2022-09-15T13:50:06.189Z,437
2022-09-15T13:55:06.202Z,466
2022-09-15T14:00:08.670Z,517
2022-09-15T14:05:06.185Z,770
2022-09-15T14:10:06.159Z,733
2022-09-15T14:15:06.094Z,601
2022-09-15T14:20:06.114Z,783
2022-09-15T14:25:06.309Z,1006
2022-09-15T14:30:06.148Z,947
2022-09-15T14:35:06.227Z,709
2022-09-15T14:40:06.240Z,614
2022-09-15T14:50:06.159Z,683
2022-09-15T14:55:06.102Z,483
2022-09-15T15:00:06.189Z,456
2022-09-15T15:05:06.148Z,452
2022-09-15T15:10:06.120Z,538
2022-09-15T15:15:06.131Z,593
2022-09-15T15:20:06.242Z,533
2022-09-15T15:25:06.285Z,542
2022-09-15T15:30:06.205Z,588
2022-09-15T15:35:06.136Z,574
2022-09-15T15:40:06.207Z,506
2022-09-15T15:45:06.256Z,515
2022-09-15T15:50:13.085Z,495
2022-09-15T15:55:06.174Z,506
2022-09-15T16:00:06.138Z,470
2022-09-15T16:05:06.207Z,445
2022-09-15T16:10:06.176Z,462
2022-09-15T16:15:06.163Z,492
2022-09-15T16:20:06.152Z,395
2022-09-15T16:25:06.376Z,306
2022-09-15T16:30:06.140Z,271
2022-09-15T16:35:06.147Z,278
2022-09-15T16:40:06.197Z,301
2022-09-15T16:45:06.189Z,293
2022-09-15T16:50:06.189Z,284
2022-09-15T16:55:06.206Z,292
2022-09-15T17:00:06.169Z,281
2022-09-15T17:05:06.203Z,282
2022-09-15T17:10:06.172Z,277
2022-09-15T17:15:06.150Z,268
2022-09-15T17:20:06.190Z,264
2022-09-15T17:25:06.270Z,261
2022-09-15T17:30:06.175Z,260
2022-09-15T17:35:06.194Z,258
2022-09-15T17:40:06.288Z,257
2022-09-15T17:45:06.155Z,0
2022-09-15T17:50:06.177Z,0
2022-09-15T17:55:06.157Z,0
2022-09-15T18:00:06.201Z,0
2022-09-15T18:05:06.218Z,0
2022-09-15T18:10:06.279Z,0
2022-09-15T18:15:06.194Z,0
2022-09-15T18:20:06.284Z,0
2022-09-15T18:25:06.170Z,0
2022-09-15T18:30:06.233Z,0
2022-09-15T18:35:06.205Z,0
2022-09-15T18:40:06.232Z,0
2022-09-15T18:45:06.214Z,0
2022-09-15T18:50:06.210Z,0
2022-09-15T18:55:06.176Z,0
2022-09-15T19:00:06.227Z,0
2022-09-15T19:05:06.196Z,0
2022-09-15T19:10:06.229Z,0
2022-09-15T19:15:10.482Z,0
2022-09-15T19:20:06.252Z,0
2022-09-15T19:25:06.191Z,0
2022-09-15T19:30:06.334Z,0
2022-09-15T19:35:06.237Z,0
2022-09-15T19:40:06.287Z,0
2022-09-15T19:45:06.171Z,0
2022-09-15T19:50:06.212Z,0
2022-09-15T19:55:06.202Z,0
2022-09-15T20:00:06.228Z,0
2022-09-15T20:05:06.266Z,0
2022-09-15T20:10:06.197Z,0
2022-09-15T20:15:06.208Z,0
2022-09-15T20:20:06.211Z,0
2022-09-15T20:25:06.497Z,0
2022-09-15T20:30:06.229Z,0
2022-09-15T20:35:06.235Z,0
2022-09-15T20:40:06.246Z,0
2022-09-15T20:45:06.214Z,0
2022-09-15T20:50:06.239Z,0
2022-09-15T20:55:06.325Z,0
2022-09-15T21:00:06.239Z,0
2022-09-15T21:05:06.227Z,0
2022-09-15T21:10:06.303Z,0
2022-09-15T21:15:06.244Z,0
2022-09-15T21:20:06.295Z,0
2022-09-15T21:25:06.269Z,0
2022-09-15T21:30:06.243Z,0
2022-09-15T21:35:06.225Z,0
2022-09-15T21:40:06.306Z,0
2022-09-15T21:45:06.269Z,0
2022-09-15T21:50:06.305Z,0
2022-09-15T21:55:06.227Z,0
2022-09-15T22:00:06.531Z,0
2022-09-15T22:05:06.250Z,0
2022-09-15T22:10:06.267Z,0
2022-09-15T22:15:06.448Z,0
2022-09-15T22:20:06.251Z,0
2022-09-15T22:25:06.230Z,0
2022-09-15T22:30:06.255Z,0
2022-09-15T22:35:06.311Z,0
2022-09-15T22:40:06.343Z,0
2022-09-15T22:45:06.328Z,0
2022-09-15T22:50:06.350Z,0
2022-09-15T22:55:06.308Z,0
2022-09-15T23:00:06.290Z,0
2022-09-15T23:05:06.262Z,0
2022-09-15T23:10:06.320Z,0
2022-09-15T23:15:06.304Z,0
2022-09-15T23:20:06.292Z,0
2022-09-15T23:25:06.469Z,0
2022-09-15T23:30:06.232Z,0
2022-09-15T23:35:06.336Z,0
2022-09-15T23:40:06.303Z,0
2022-09-15T23:45:06.349Z,0
2022-09-15T23:50:06.280Z,0
2022-09-15T23:55:06.261Z,0
